createdAt,value
2018-07-13T00:01:47.505Z,57.61
2018-07-13T00:04:17.386Z,57.57
2018-07-13T00:06:47.270Z,57.66
2018-07-13T00:09:17.131Z,57.72
2018-07-13T00:11:46.994Z,57.97
2018-07-13T00:14:25.717Z,57.84
2018-07-13T00:16:56.724Z,58.48
2018-07-13T00:19:26.938Z,57.96
2018-07-13T00:21:56.792Z,58.79
2018-07-13T00:24:26.652Z,58.64
2018-07-13T00:26:56.522Z,58.37
2018-07-13T00:29:26.424Z,59.04
2018-07-13T00:31:56.220Z,58.63
2018-07-13T00:34:26.096Z,58.80
2018-07-13T00:36:55.913Z,58.62
2018-07-13T00:39:26.191Z,59.23
2018-07-13T00:41:56.028Z,58.47
2018-07-13T00:44:25.856Z,58.62
2018-07-13T00:46:55.700Z,59.67
2018-07-13T00:49:25.507Z,59.49
2018-07-13T00:51:55.364Z,59.70
2018-07-13T00:54:26.076Z,59.67
2018-07-13T00:56:55.932Z,59.26
2018-07-13T00:59:25.744Z,59.17
2018-07-13T01:01:55.608Z,59.58
2018-07-13T01:04:25.448Z,59.94
2018-07-13T01:06:55.341Z,59.83
2018-07-13T01:09:25.716Z,60.54
2018-07-13T01:11:55.616Z,60.32
2018-07-13T01:14:25.508Z,60.67
2018-07-13T01:16:55.317Z,60.42
2018-07-13T01:19:25.186Z,60.22
2018-07-13T01:21:55.005Z,60.54
2018-07-13T01:24:24.844Z,60.95
2018-07-13T01:26:54.716Z,61.20
2018-07-13T01:29:24.548Z,61.15
2018-07-13T01:31:54.353Z,60.79
2018-07-13T01:34:24.203Z,60.39
2018-07-13T01:36:54.232Z,60.58
2018-07-13T01:39:24.087Z,60.72
2018-07-13T01:41:53.892Z,60.33
2018-07-13T01:44:23.748Z,60.42
2018-07-13T01:46:53.552Z,60.25
2018-07-13T01:49:23.717Z,61.11
2018-07-13T01:51:53.576Z,61.52
2018-07-13T01:54:23.418Z,62.12
2018-07-13T01:56:53.341Z,62.96
2018-07-13T01:59:23.168Z,62.22
2018-07-13T02:01:53.009Z,62.59
2018-07-13T02:04:22.852Z,63.20
2018-07-13T02:06:52.744Z,63.00
2018-07-13T02:09:22.571Z,63.67
2018-07-13T02:11:52.418Z,63.71
2018-07-13T02:14:22.286Z,63.30
2018-07-13T02:16:52.108Z,63.44
2018-07-13T02:19:22.000Z,63.26
2018-07-13T02:21:51.869Z,63.38
2018-07-13T02:24:21.716Z,64.02
2018-07-13T02:26:51.568Z,63.84
2018-07-13T02:29:21.427Z,63.82
2018-07-13T02:31:51.260Z,64.27
2018-07-13T02:34:21.063Z,64.52
2018-07-13T02:36:50.924Z,63.68
2018-07-13T02:39:20.780Z,64.23
2018-07-13T02:41:50.809Z,64.18
2018-07-13T02:44:20.648Z,64.31
2018-07-13T02:46:50.633Z,63.91
2018-07-13T02:49:20.451Z,63.74
2018-07-13T02:51:50.323Z,63.77
2018-07-13T02:54:20.162Z,64.33
2018-07-13T02:56:50.115Z,64.02
2018-07-13T02:59:19.978Z,64.60
2018-07-13T03:01:49.828Z,64.42
2018-07-13T03:04:19.728Z,65.10
2018-07-13T03:06:49.527Z,64.68
2018-07-13T03:09:19.363Z,64.91
2018-07-13T03:11:49.164Z,65.17
2018-07-13T03:14:19.085Z,64.33
2018-07-13T03:16:48.925Z,65.08
2018-07-13T03:19:18.764Z,64.60
2018-07-13T03:21:48.636Z,64.57
2018-07-13T03:24:18.456Z,64.67
2018-07-13T03:26:48.368Z,64.36
2018-07-13T03:29:18.164Z,64.44
2018-07-13T03:31:48.066Z,64.49
2018-07-13T03:34:17.879Z,63.98
2018-07-13T03:36:47.727Z,64.92
2018-07-13T03:39:17.673Z,63.84
2018-07-13T03:41:47.516Z,64.30
2018-07-13T03:44:17.333Z,63.90
2018-07-13T03:46:47.175Z,63.39
2018-07-13T03:49:17.040Z,62.58
2018-07-13T03:51:46.904Z,62.22
2018-07-13T03:54:17.236Z,63.94
2018-07-13T03:56:47.444Z,63.03
2018-07-13T03:59:17.264Z,62.75
2018-07-13T04:01:47.112Z,62.42
2018-07-13T04:04:16.980Z,62.58
2018-07-13T04:06:46.859Z,61.60
2018-07-13T04:09:16.691Z,61.23
2018-07-13T04:11:46.597Z,60.59
2018-07-13T04:14:16.572Z,58.75
2018-07-13T04:16:46.514Z,58.77
2018-07-13T04:19:16.368Z,59.11
2018-07-13T04:21:46.336Z,58.58
2018-07-13T04:24:16.624Z,58.87
2018-07-13T04:26:47.952Z,58.24
2018-07-13T04:29:17.967Z,57.75
2018-07-13T04:31:47.827Z,57.80
2018-07-13T04:34:17.719Z,58.12
2018-07-13T04:36:47.612Z,56.13
2018-07-13T04:39:17.528Z,56.40
2018-07-13T04:41:47.400Z,56.34
2018-07-13T04:44:17.252Z,55.90
2018-07-13T04:46:47.332Z,55.40
2018-07-13T04:49:17.372Z,54.87
2018-07-13T04:51:47.356Z,54.38
2018-07-13T04:54:17.639Z,54.08
2018-07-13T04:56:47.845Z,53.55
2018-07-13T04:59:17.962Z,52.97
2018-07-13T05:01:48.039Z,52.65
2018-07-13T05:04:18.012Z,50.56
2018-07-13T05:06:48.352Z,50.05
2018-07-13T05:09:18.252Z,48.74
2018-07-13T05:11:48.204Z,48.25
2018-07-13T05:14:18.104Z,48.05
2018-07-13T05:16:48.024Z,48.07
2018-07-13T05:19:17.924Z,46.92
2018-07-13T05:21:47.984Z,45.22
2018-07-13T05:24:18.156Z,45.36
2018-07-13T05:26:48.164Z,44.86
2018-07-13T05:29:18.204Z,45.06
2018-07-13T05:31:48.220Z,45.06
2018-07-13T05:34:18.332Z,45.49
2018-07-13T05:36:48.440Z,45.54
2018-07-13T05:39:18.480Z,45.85
2018-07-13T05:41:48.545Z,46.38
2018-07-13T05:44:18.577Z,46.32
2018-07-13T05:46:48.649Z,45.84
2018-07-13T05:49:18.979Z,45.73
2018-07-13T05:51:49.892Z,45.78
2018-07-13T05:54:19.975Z,45.94
2018-07-13T05:56:50.165Z,45.30
2018-07-13T05:59:20.406Z,44.69
2018-07-13T06:01:50.480Z,44.83
2018-07-13T06:04:20.520Z,44.99
2018-07-13T06:06:50.599Z,44.43
2018-07-13T06:09:20.552Z,43.75
2018-07-13T06:11:50.644Z,44.15
2018-07-13T06:14:20.517Z,43.89
2018-07-13T06:16:50.431Z,44.33
2018-07-13T06:19:20.324Z,44.09
2018-07-13T06:21:50.361Z,42.97
2018-07-13T06:24:20.345Z,42.83
2018-07-13T06:26:50.304Z,42.25
2018-07-13T06:29:20.339Z,40.94
2018-07-13T06:31:50.363Z,40.72
2018-07-13T06:34:20.279Z,40.64
2018-07-13T06:36:50.389Z,40.12
2018-07-13T06:39:20.392Z,39.66
2018-07-13T06:41:50.336Z,40.58
2018-07-13T06:44:20.347Z,40.35
2018-07-13T06:46:50.247Z,39.59
2018-07-13T06:49:20.207Z,39.96
2018-07-13T06:51:50.307Z,39.95
2018-07-13T06:54:20.195Z,39.49
2018-07-13T06:56:50.180Z,39.47
2018-07-13T06:59:20.891Z,39.07
2018-07-13T07:01:50.940Z,38.85
2018-07-13T07:04:37.088Z,39.53
2018-07-13T07:07:15.144Z,38.63
2018-07-13T07:09:49.089Z,38.19
2018-07-13T07:13:28.397Z,38.30
2018-07-13T07:15:58.524Z,38.99
2018-07-13T07:18:28.459Z,39.52
2018-07-13T07:20:59.003Z,38.71
2018-07-13T07:23:29.655Z,38.36
2018-07-13T07:26:00.584Z,38.04
2018-07-13T07:28:30.581Z,37.71
2018-07-13T07:31:01.392Z,37.52
2018-07-13T07:33:31.290Z,37.00
2018-07-13T07:36:01.134Z,38.35
2018-07-13T07:38:31.175Z,38.13
2018-07-13T07:41:05.654Z,37.29
2018-07-13T07:43:35.975Z,38.48
2018-07-13T07:46:05.942Z,38.38
2018-07-13T07:48:36.067Z,38.22
2018-07-13T07:51:06.007Z,38.35
2018-07-13T07:53:40.939Z,37.70
2018-07-13T07:56:10.995Z,38.11
2018-07-13T07:58:40.970Z,36.30
2018-07-13T08:01:10.847Z,37.51
2018-07-13T08:03:40.791Z,37.35
2018-07-13T08:06:10.813Z,37.13
2018-07-13T08:08:40.740Z,35.95
2018-07-13T08:11:10.595Z,36.29
2018-07-13T08:13:40.705Z,37.18
2018-07-13T08:16:11.171Z,38.11
2018-07-13T08:18:41.069Z,37.23
2018-07-13T08:21:11.022Z,37.89
2018-07-13T08:23:41.556Z,38.16
2018-07-13T08:26:13.159Z,37.89
2018-07-13T08:28:44.912Z,37.63
2018-07-13T08:31:15.407Z,37.34
2018-07-13T08:33:45.295Z,37.12
2018-07-13T08:36:15.307Z,37.51
2018-07-13T08:38:45.363Z,37.24
2018-07-13T08:41:16.208Z,37.18
2018-07-13T08:43:47.346Z,36.61
2018-07-13T08:46:17.485Z,35.84
2018-07-13T08:48:47.393Z,36.05
2018-07-13T08:51:17.503Z,36.10
2018-07-13T08:53:47.555Z,35.40
2018-07-13T08:56:17.702Z,35.79
2018-07-13T08:58:47.674Z,35.70
2018-07-13T09:01:17.719Z,35.60
2018-07-13T09:03:47.607Z,34.45
2018-07-13T09:06:17.650Z,34.81
2018-07-13T09:08:47.588Z,35.28
2018-07-13T09:11:17.575Z,34.09
2018-07-13T09:13:47.723Z,34.88
2018-07-13T09:16:18.568Z,34.83
2018-07-13T09:18:49.591Z,34.16
2018-07-13T09:21:19.514Z,34.09
2018-07-13T09:23:49.472Z,34.01
2018-07-13T09:26:19.363Z,33.21
2018-07-13T09:28:49.276Z,33.29
2018-07-13T09:31:19.259Z,33.14
2018-07-13T09:33:49.217Z,33.42
2018-07-13T09:36:19.561Z,33.86
2018-07-13T09:38:49.419Z,33.67
2018-07-13T09:41:19.414Z,32.76
2018-07-13T09:43:49.475Z,32.26
2018-07-13T09:46:19.427Z,32.48
2018-07-13T09:48:49.322Z,32.94
2018-07-13T09:51:19.177Z,32.79
2018-07-13T09:53:49.343Z,32.68
2018-07-13T09:56:19.132Z,32.05
2018-07-13T09:58:49.148Z,30.79
2018-07-13T10:01:20.827Z,31.07
2018-07-13T10:03:50.698Z,31.31
2018-07-13T10:06:20.643Z,31.62
2018-07-13T10:08:50.532Z,31.69
2018-07-13T10:11:20.456Z,32.00
2018-07-13T10:13:50.353Z,31.93
2018-07-13T10:16:20.190Z,31.08
2018-07-13T10:18:50.059Z,29.29
2018-07-13T10:21:19.987Z,28.68
2018-07-13T10:23:49.927Z,28.05
2018-07-13T10:26:23.252Z,29.43
2018-07-13T10:28:53.224Z,30.01
2018-07-13T10:31:23.459Z,29.22
2018-07-13T10:33:53.459Z,29.56
2018-07-13T10:36:23.663Z,29.47
2018-07-13T10:38:53.559Z,29.39
2018-07-13T10:41:23.407Z,28.25
2018-07-13T10:43:53.179Z,28.31
2018-07-13T10:46:23.159Z,27.99
2018-07-13T10:48:52.927Z,27.21
2018-07-13T10:51:22.797Z,28.72
2018-07-13T10:53:52.616Z,28.94
2018-07-13T10:56:22.623Z,29.30
2018-07-13T10:58:52.440Z,27.37
2018-07-13T11:01:22.251Z,28.37
2018-07-13T11:03:52.829Z,28.19
2018-07-13T11:06:22.800Z,28.79
2018-07-13T11:08:52.679Z,28.19
2018-07-13T11:11:22.420Z,28.52
2018-07-13T11:13:52.518Z,28.25
2018-07-13T11:16:22.261Z,28.53
2018-07-13T11:18:52.047Z,28.97
2018-07-13T11:21:21.964Z,27.68
2018-07-13T11:23:51.897Z,27.07
2018-07-13T11:26:21.884Z,27.05
2018-07-13T11:28:52.203Z,27.00
2018-07-13T11:31:22.267Z,27.49
2018-07-13T11:33:52.264Z,28.96
2018-07-13T11:36:22.162Z,28.09
2018-07-13T11:38:53.044Z,27.45
2018-07-13T11:41:23.005Z,27.68
2018-07-13T11:43:53.136Z,25.19
2018-07-13T11:46:23.168Z,25.24
2018-07-13T11:48:53.104Z,25.34
2018-07-13T11:51:22.945Z,24.48
2018-07-13T11:53:52.816Z,24.23
2018-07-13T11:56:22.647Z,25.13
2018-07-13T11:58:52.696Z,25.20
2018-07-13T12:01:22.680Z,25.74
2018-07-13T12:03:52.498Z,26.16
2018-07-13T12:06:22.394Z,25.13
2018-07-13T12:08:52.207Z,25.49
2018-07-13T12:11:22.079Z,25.68
2018-07-13T12:13:51.872Z,25.82
2018-07-13T12:16:21.799Z,26.90
2018-07-13T12:18:51.673Z,25.21
2018-07-13T12:21:21.483Z,25.88
2018-07-13T12:23:51.325Z,25.20
2018-07-13T12:26:21.171Z,25.43
2018-07-13T12:28:50.974Z,25.83
2018-07-13T12:31:20.947Z,24.70
2018-07-13T12:33:51.024Z,25.28
2018-07-13T12:36:20.900Z,24.77
2018-07-13T12:41:25.241Z,24.65
2018-07-13T12:43:55.116Z,25.17
2018-07-13T12:46:24.988Z,24.75
2018-07-13T12:48:55.921Z,25.72
2018-07-13T12:51:25.939Z,25.99
2018-07-13T12:53:55.988Z,27.49
2018-07-13T12:56:25.860Z,27.24
2018-07-13T12:58:55.694Z,28.20
2018-07-13T13:01:25.580Z,27.36
2018-07-13T13:03:55.632Z,27.84
2018-07-13T13:06:26.739Z,27.86
2018-07-13T13:08:56.705Z,28.31
2018-07-13T13:11:26.744Z,28.35
2018-07-13T13:13:57.613Z,29.15
2018-07-13T13:16:27.527Z,30.55
2018-07-13T13:18:57.386Z,30.52
2018-07-13T13:21:28.198Z,29.24
2018-07-13T13:23:58.171Z,29.68
2018-07-13T13:26:28.134Z,29.04
2018-07-13T13:31:38.819Z,35.71
2018-07-13T13:34:08.796Z,35.43
2018-07-13T13:36:38.697Z,34.45
2018-07-13T13:39:08.772Z,35.53
2018-07-13T13:41:38.608Z,35.86
2018-07-13T13:44:08.601Z,36.54
2018-07-13T13:49:14.860Z,42.11
2018-07-13T13:51:44.689Z,42.71
2018-07-13T13:54:14.575Z,42.93
2018-07-13T13:56:44.554Z,48.88
2018-07-13T13:59:14.513Z,48.28
2018-07-13T14:01:44.464Z,47.93
2018-07-13T14:04:14.340Z,50.59
2018-07-13T14:06:44.179Z,50.50
2018-07-13T14:09:14.251Z,49.69
2018-07-13T14:11:44.235Z,48.79
2018-07-13T14:14:14.159Z,49.06
2018-07-13T14:16:45.137Z,48.73
2018-07-13T14:19:15.180Z,45.83
2018-07-13T14:21:45.227Z,44.35
2018-07-13T14:24:15.080Z,46.28
2018-07-13T14:26:45.045Z,47.73
2018-07-13T14:29:14.892Z,46.72
2018-07-13T14:31:46.304Z,48.02
2018-07-13T14:34:16.129Z,48.68
2018-07-13T14:36:45.989Z,45.12
2018-07-13T14:39:16.089Z,44.56
2018-07-13T14:41:47.984Z,44.84
2018-07-13T14:44:17.796Z,45.27
2018-07-13T14:46:47.741Z,45.00
2018-07-13T14:49:17.612Z,45.57
2018-07-13T14:51:47.529Z,45.19
2018-07-13T14:54:19.353Z,44.94
2018-07-13T14:56:49.320Z,45.29
2018-07-13T14:59:19.187Z,45.75
2018-07-13T15:01:49.084Z,45.27
2018-07-13T15:04:18.962Z,46.39
2018-07-13T15:06:48.955Z,45.72
2018-07-13T15:09:18.788Z,45.30
2018-07-13T15:11:48.684Z,45.56
2018-07-13T15:14:18.628Z,45.98
2018-07-13T15:16:48.463Z,44.88
2018-07-13T15:19:18.328Z,44.16
2018-07-13T15:21:48.240Z,44.03
2018-07-13T15:24:18.045Z,44.60
2018-07-13T15:26:47.949Z,45.40
2018-07-13T15:29:17.808Z,45.28
2018-07-13T15:31:47.669Z,45.71
2018-07-13T15:34:17.691Z,46.11
2018-07-13T15:36:47.503Z,46.07
2018-07-13T15:39:17.355Z,44.71
2018-07-13T15:41:47.206Z,44.69
2018-07-13T15:44:17.044Z,45.01
2018-07-13T15:46:46.908Z,44.70
2018-07-13T15:49:16.716Z,45.60
2018-07-13T15:51:46.572Z,45.57
2018-07-13T15:54:18.484Z,45.31
2018-07-13T15:56:48.364Z,45.20
2018-07-13T15:59:18.204Z,44.89
2018-07-13T16:01:48.091Z,45.30
2018-07-13T16:04:17.999Z,44.44
2018-07-13T16:06:47.858Z,44.48
2018-07-13T16:09:17.747Z,43.38
2018-07-13T16:11:47.608Z,43.07
2018-07-13T16:14:17.469Z,42.38
2018-07-13T16:16:47.368Z,41.71
2018-07-13T16:19:17.164Z,42.47
2018-07-13T16:21:47.068Z,42.49
2018-07-13T16:24:16.927Z,43.16
2018-07-13T16:26:46.724Z,42.04
2018-07-13T16:29:16.552Z,41.68
2018-07-13T16:31:46.383Z,41.00
2018-07-13T16:36:51.097Z,40.41
2018-07-13T16:39:20.939Z,40.24
2018-07-13T16:41:50.756Z,40.72
2018-07-13T16:44:20.592Z,41.17
2018-07-13T16:46:50.388Z,40.94
2018-07-13T16:49:20.283Z,40.43
2018-07-13T16:51:50.308Z,41.20
2018-07-13T16:54:20.172Z,40.90
2018-07-13T16:56:50.001Z,41.47
2018-07-13T16:59:19.857Z,41.16
2018-07-13T17:01:50.705Z,41.45
2018-07-13T17:04:20.573Z,41.68
2018-07-13T17:06:50.364Z,41.81
2018-07-13T17:09:20.248Z,42.03
2018-07-13T17:11:50.137Z,41.95
2018-07-13T17:14:19.996Z,42.23
2018-07-13T17:16:49.913Z,42.72
2018-07-13T17:19:19.769Z,43.25
2018-07-13T17:21:49.592Z,43.53
2018-07-13T17:24:19.438Z,43.38
2018-07-13T17:26:49.236Z,42.05
2018-07-13T17:29:19.088Z,41.42
2018-07-13T17:31:48.929Z,40.82
2018-07-13T17:34:18.791Z,41.26
2018-07-13T17:36:48.640Z,40.90
2018-07-13T17:39:18.494Z,41.50
2018-07-13T17:41:48.359Z,42.10
2018-07-13T17:44:18.235Z,41.57
2018-07-13T17:46:48.084Z,41.98
2018-07-13T17:49:17.987Z,42.58
2018-07-13T17:51:47.888Z,42.73
2018-07-13T17:54:17.731Z,43.80
2018-07-13T17:56:47.584Z,43.36
2018-07-13T18:02:51.531Z,42.83
2018-07-13T18:05:21.339Z,43.27
2018-07-13T18:07:51.180Z,43.12
2018-07-13T18:10:21.064Z,43.08
2018-07-13T18:12:50.973Z,42.77
2018-07-13T18:15:20.768Z,42.92
2018-07-13T18:17:50.621Z,42.29
2018-07-13T18:20:20.536Z,42.83
2018-07-13T18:22:50.423Z,42.54
2018-07-13T18:25:20.300Z,42.62
2018-07-13T18:27:50.141Z,43.18
2018-07-13T18:30:20.034Z,43.61
2018-07-13T18:32:49.867Z,43.84
2018-07-13T18:35:19.767Z,43.54
2018-07-13T18:37:49.609Z,44.09
2018-07-13T18:40:19.505Z,43.58
2018-07-13T18:42:49.400Z,43.59
2018-07-13T18:46:06.086Z,43.77
2018-07-13T18:48:35.940Z,43.78
2018-07-13T18:51:05.775Z,43.95
2018-07-13T18:53:35.625Z,44.12
2018-07-13T18:56:05.456Z,44.58
2018-07-13T18:58:35.347Z,44.81
2018-07-13T19:01:05.270Z,44.50
2018-07-13T19:03:35.820Z,44.67
2018-07-13T19:06:05.861Z,44.97
2018-07-13T19:08:35.717Z,45.33
2018-07-13T19:11:05.588Z,44.42
2018-07-13T19:13:35.464Z,45.30
2018-07-13T19:16:05.396Z,45.07
2018-07-13T19:18:35.312Z,45.10
2018-07-13T19:21:05.183Z,45.79
2018-07-13T19:23:35.028Z,45.70
2018-07-13T19:26:04.884Z,46.11
2018-07-13T19:32:18.120Z,47.16
2018-07-13T19:34:48.033Z,47.47
2018-07-13T19:37:17.869Z,46.90
2018-07-13T19:39:47.723Z,47.14
2018-07-13T19:42:17.538Z,47.00
2018-07-13T19:44:47.402Z,47.16
2018-07-13T19:47:17.324Z,47.23
2018-07-13T19:49:47.125Z,47.29
2018-07-13T19:52:17.013Z,47.95
2018-07-13T19:54:46.853Z,47.33
2018-07-13T19:57:16.729Z,47.98
2018-07-13T19:59:46.621Z,47.81
2018-07-13T20:02:16.493Z,48.14
2018-07-13T20:04:46.352Z,47.57
2018-07-13T20:10:01.236Z,48.18
2018-07-13T20:12:31.164Z,47.95
2018-07-13T20:15:01.068Z,47.96
2018-07-13T20:17:30.941Z,48.14
2018-07-13T20:22:35.744Z,48.01
2018-07-13T20:25:06.270Z,47.81
2018-07-13T20:27:36.312Z,47.89
2018-07-13T20:30:06.573Z,47.67
2018-07-13T20:32:36.554Z,47.66
2018-07-13T20:35:06.432Z,47.75
2018-07-13T20:37:36.313Z,47.85
2018-07-13T20:43:32.491Z,47.61
2018-07-13T20:46:02.300Z,47.98
2018-07-13T20:48:32.160Z,47.85
2018-07-13T20:51:02.028Z,48.04
2018-07-13T20:53:33.750Z,47.78
2018-07-13T20:56:03.681Z,47.87
2018-07-13T20:58:33.528Z,47.61
2018-07-13T21:01:03.369Z,47.40
2018-07-13T21:03:33.245Z,47.86
2018-07-13T21:06:03.068Z,47.29
2018-07-13T21:08:32.968Z,47.22
2018-07-13T21:11:02.820Z,47.98
2018-07-13T21:13:32.708Z,47.90
2018-07-13T21:16:02.544Z,47.55
2018-07-13T21:18:32.407Z,47.88
2018-07-13T21:21:02.358Z,48.26
2018-07-13T21:23:32.204Z,48.11
2018-07-13T21:26:02.025Z,48.34
2018-07-13T21:28:31.930Z,48.31
2018-07-13T21:31:01.940Z,48.61
2018-07-13T21:33:31.796Z,49.30
2018-07-13T21:36:01.645Z,48.80
2018-07-13T21:38:31.512Z,48.79
2018-07-13T21:41:01.312Z,48.89
2018-07-13T21:43:31.213Z,49.31
2018-07-13T21:46:01.019Z,49.14
2018-07-13T21:48:30.861Z,49.37
2018-07-13T21:51:00.704Z,49.42
2018-07-13T21:53:30.575Z,49.87
2018-07-13T21:56:00.380Z,50.03
2018-07-13T21:58:30.276Z,50.13
2018-07-13T22:01:00.215Z,50.13
2018-07-13T22:03:30.116Z,51.02
2018-07-13T22:05:59.937Z,50.50
2018-07-13T22:08:29.805Z,51.11
2018-07-13T22:10:59.673Z,50.86
2018-07-13T22:13:29.548Z,50.69
2018-07-13T22:15:59.399Z,50.94
2018-07-13T22:18:29.297Z,51.30
2018-07-13T22:20:59.241Z,51.70
2018-07-13T22:23:29.149Z,51.10
2018-07-13T22:25:59.167Z,52.05
2018-07-13T22:28:29.011Z,52.67
2018-07-13T22:30:58.856Z,52.89
2018-07-13T22:33:28.732Z,52.82
2018-07-13T22:35:58.612Z,52.92
2018-07-13T22:38:28.560Z,53.67
2018-07-13T22:40:58.528Z,53.19
2018-07-13T22:43:28.476Z,53.29
2018-07-13T22:45:58.648Z,53.03
2018-07-13T22:48:28.464Z,52.99
2018-07-13T22:50:58.357Z,53.01
2018-07-13T22:53:28.210Z,53.06
2018-07-13T22:55:58.208Z,52.77
2018-07-13T22:58:28.052Z,53.46
2018-07-13T23:00:57.988Z,53.13
2018-07-13T23:03:29.950Z,53.68
2018-07-13T23:06:05.021Z,53.37
2018-07-13T23:08:34.884Z,53.42
2018-07-13T23:11:05.649Z,53.50
2018-07-13T23:13:35.624Z,54.01
2018-07-13T23:18:46.791Z,53.82
2018-07-13T23:21:16.605Z,53.65
2018-07-13T23:23:46.477Z,53.26
2018-07-13T23:26:16.305Z,54.13
2018-07-13T23:28:46.156Z,54.08
2018-07-13T23:31:21.303Z,53.43
2018-07-13T23:33:51.213Z,53.28
2018-07-13T23:36:21.081Z,53.66
2018-07-13T23:38:50.960Z,53.59
2018-07-13T23:41:20.860Z,53.04
2018-07-13T23:43:50.808Z,53.57
2018-07-13T23:46:20.660Z,53.61
2018-07-13T23:48:50.499Z,53.61
2018-07-13T23:51:20.377Z,54.04
2018-07-13T23:53:50.263Z,53.83
2018-07-13T23:56:20.094Z,54.07
2018-07-13T23:58:50.060Z,53.95
